createdAt,value
2018-10-11T00:01:56.871Z,10.40
2018-10-11T00:04:27.230Z,10.40
2018-10-11T00:06:57.656Z,10.40
2018-10-11T00:09:28.021Z,10.40
2018-10-11T00:11:58.451Z,10.40
2018-10-11T00:14:28.832Z,10.40
2018-10-11T00:16:59.308Z,10.40
2018-10-11T00:19:29.709Z,10.40
2018-10-11T00:22:00.149Z,10.40
2018-10-11T00:24:30.526Z,10.30
2018-10-11T00:27:00.918Z,10.30
2018-10-11T00:29:31.368Z,10.30
2018-10-11T00:32:01.793Z,10.20
2018-10-11T00:34:32.226Z,10.20
2018-10-11T00:37:02.665Z,10.20
2018-10-11T00:39:33.065Z,10.20
2018-10-11T00:42:03.480Z,10.20
2018-10-11T00:44:33.850Z,10.10
2018-10-11T00:47:04.260Z,10.10
2018-10-11T00:49:34.680Z,10.10
2018-10-11T00:52:05.037Z,10.10
2018-10-11T00:54:35.493Z,10.10
2018-10-11T00:57:06.312Z,10.00
2018-10-11T00:59:36.826Z,10.00
2018-10-11T01:02:07.247Z,10.00
2018-10-11T01:04:37.669Z,9.90
2018-10-11T01:07:08.112Z,9.90
2018-10-11T01:09:38.552Z,9.80
2018-10-11T01:12:09.238Z,9.80
2018-10-11T01:14:39.690Z,9.70
2018-10-11T01:17:10.084Z,9.70
2018-10-11T01:19:40.606Z,9.70
2018-10-11T01:22:11.012Z,9.60
2018-10-11T01:24:41.945Z,9.60
2018-10-11T01:27:12.311Z,9.60
2018-10-11T01:29:42.753Z,9.70
2018-10-11T01:32:13.128Z,9.60
2018-10-11T01:34:43.538Z,9.60
2018-10-11T01:37:13.949Z,9.60
2018-10-11T01:39:44.419Z,9.60
2018-10-11T01:42:14.829Z,9.50
2018-10-11T01:44:45.322Z,9.50
2018-10-11T01:47:15.780Z,9.50
2018-10-11T01:49:46.305Z,9.50
2018-10-11T01:52:16.719Z,9.40
2018-10-11T01:54:47.129Z,9.40
2018-10-11T01:57:17.519Z,9.40
2018-10-11T01:59:47.892Z,9.40
2018-10-11T02:02:18.276Z,9.40
2018-10-11T02:04:48.649Z,9.40
2018-10-11T02:07:19.065Z,9.30
2018-10-11T02:09:49.501Z,9.30
2018-10-11T02:12:19.887Z,9.30
2018-10-11T02:14:50.259Z,9.30
2018-10-11T02:17:20.674Z,9.20
2018-10-11T02:19:51.030Z,9.20
2018-10-11T02:22:21.433Z,9.10
2018-10-11T02:24:51.793Z,9.20
2018-10-11T02:27:22.221Z,9.10
2018-10-11T02:29:52.599Z,9.10
2018-10-11T02:32:22.953Z,9.10
2018-10-11T02:34:53.473Z,9.00
2018-10-11T02:37:23.964Z,9.00
2018-10-11T02:39:54.358Z,8.90
2018-10-11T02:42:25.281Z,8.90
2018-10-11T02:44:55.667Z,8.90
2018-10-11T02:47:26.110Z,8.80
2018-10-11T02:49:56.487Z,8.80
2018-10-11T02:52:26.866Z,8.80
2018-10-11T02:54:57.291Z,8.80
2018-10-11T02:57:44.563Z,8.80
2018-10-11T03:00:15.069Z,8.80
2018-10-11T03:02:46.692Z,8.70
2018-10-11T03:05:19.099Z,8.70
2018-10-11T03:07:49.532Z,8.70
2018-10-11T03:10:20.043Z,8.60
2018-10-11T03:12:50.432Z,8.70
2018-10-11T03:15:20.929Z,8.70
2018-10-11T03:17:51.322Z,8.70
2018-10-11T03:20:21.750Z,8.70
2018-10-11T03:22:52.127Z,8.70
2018-10-11T03:25:22.597Z,8.70
2018-10-11T03:27:52.978Z,8.70
2018-10-11T03:30:23.447Z,8.70
2018-10-11T03:32:53.824Z,8.60
2018-10-11T03:35:24.232Z,8.60
2018-10-11T03:37:54.934Z,8.60
2018-10-11T03:40:25.353Z,8.50
2018-10-11T03:42:56.071Z,8.50
2018-10-11T03:45:26.556Z,8.50
2018-10-11T03:47:57.041Z,8.50
2018-10-11T03:50:27.901Z,8.50
2018-10-11T03:52:59.108Z,8.50
2018-10-11T03:55:29.523Z,8.50
2018-10-11T03:57:59.869Z,8.50
2018-10-11T04:00:30.294Z,8.50
2018-10-11T04:03:00.691Z,8.50
2018-10-11T04:05:31.081Z,8.50
2018-10-11T04:08:01.339Z,8.50
2018-10-11T04:10:31.657Z,8.50
2018-10-11T04:13:01.982Z,8.40
2018-10-11T04:15:32.341Z,8.40
2018-10-11T04:18:02.653Z,8.40
2018-10-11T04:20:32.957Z,8.40
2018-10-11T04:23:03.290Z,8.30
2018-10-11T04:25:33.605Z,8.30
2018-10-11T04:28:03.897Z,8.30
2018-10-11T04:30:34.213Z,8.20
2018-10-11T04:33:04.584Z,8.30
2018-10-11T04:35:34.851Z,8.20
2018-10-11T04:38:05.140Z,8.20
2018-10-11T04:40:35.421Z,8.20
2018-10-11T04:43:05.920Z,8.20
2018-10-11T04:45:36.064Z,8.20
2018-10-11T04:48:06.411Z,8.20
2018-10-11T04:50:36.728Z,8.20
2018-10-11T04:53:07.067Z,8.20
2018-10-11T04:55:37.402Z,8.20
2018-10-11T04:58:07.969Z,8.20
2018-10-11T05:00:38.257Z,8.20
2018-10-11T05:03:10.153Z,8.10
2018-10-11T05:05:40.883Z,8.10
2018-10-11T05:08:11.739Z,8.10
2018-10-11T05:10:42.327Z,8.00
2018-10-11T05:13:12.698Z,8.00
2018-10-11T05:15:44.865Z,8.10
2018-10-11T05:18:19.054Z,8.10
2018-10-11T05:20:49.366Z,8.10
2018-10-11T05:23:19.672Z,8.10
2018-10-11T05:25:50.038Z,8.10
2018-10-11T05:28:20.453Z,8.10
2018-10-11T05:30:50.753Z,8.10
2018-10-11T05:33:21.065Z,8.20
2018-10-11T05:35:51.400Z,8.20
2018-10-11T05:38:21.784Z,8.20
2018-10-11T05:40:52.147Z,8.20
2018-10-11T05:43:22.518Z,8.30
2018-10-11T05:45:58.460Z,8.30
2018-10-11T05:48:30.984Z,8.30
2018-10-11T05:51:01.987Z,8.30
2018-10-11T05:53:32.394Z,8.40
2018-10-11T05:56:02.782Z,8.40
2018-10-11T05:58:33.163Z,8.40
2018-10-11T06:01:03.518Z,8.50
2018-10-11T06:03:33.967Z,8.60
2018-10-11T06:06:04.312Z,8.60
2018-10-11T06:08:34.697Z,8.70
2018-10-11T06:11:05.611Z,8.70
2018-10-11T06:13:36.958Z,8.80
2018-10-11T06:16:07.308Z,8.90
2018-10-11T06:18:37.740Z,8.90
2018-10-11T06:21:08.198Z,9.00
2018-10-11T06:23:38.603Z,9.10
2018-10-11T06:26:08.938Z,9.10
2018-10-11T06:28:39.323Z,9.20
2018-10-11T06:31:09.658Z,9.30
2018-10-11T06:33:41.495Z,9.40
2018-10-11T06:36:12.040Z,9.40
2018-10-11T06:38:42.540Z,9.50
2018-10-11T06:41:13.036Z,9.60
2018-10-11T06:43:43.448Z,9.70
2018-10-11T06:46:14.465Z,9.80
2018-10-11T06:48:44.834Z,9.90
2018-10-11T06:51:15.251Z,10.00
2018-10-11T06:53:45.934Z,10.10
2018-10-11T06:56:16.269Z,10.20
2018-10-11T06:58:46.575Z,10.20
2018-10-11T07:01:16.937Z,10.30
2018-10-11T07:03:47.309Z,10.50
2018-10-11T07:06:17.691Z,10.70
2018-10-11T07:08:48.032Z,10.80
2018-10-11T07:11:18.357Z,10.90
2018-10-11T07:13:48.728Z,10.90
2018-10-11T07:16:19.102Z,11.00
2018-10-11T07:18:49.469Z,11.10
2018-10-11T07:21:20.042Z,11.20
2018-10-11T07:23:50.400Z,11.30
2018-10-11T07:26:20.727Z,11.30
2018-10-11T07:28:51.211Z,11.40
2018-10-11T07:31:21.518Z,11.40
2018-10-11T07:33:51.882Z,11.40
2018-10-11T07:36:22.255Z,11.50
2018-10-11T07:38:52.626Z,11.50
2018-10-11T07:41:22.978Z,11.60
2018-10-11T07:43:53.339Z,11.70
2018-10-11T07:46:23.669Z,11.70
2018-10-11T07:48:54.033Z,11.80
2018-10-11T07:51:24.314Z,11.90
2018-10-11T07:53:58.673Z,12.20
2018-10-11T07:56:29.407Z,12.30
2018-10-11T07:59:00.237Z,12.50
2018-10-11T08:01:31.327Z,12.70
2018-10-11T08:04:01.654Z,13.00
2018-10-11T08:06:31.949Z,13.10
2018-10-11T08:09:02.448Z,13.30
2018-10-11T08:11:32.797Z,13.40
2018-10-11T08:14:03.073Z,13.60
2018-10-11T08:16:33.496Z,13.70
2018-10-11T08:19:03.960Z,13.90
2018-10-11T08:21:34.098Z,14.00
2018-10-11T08:24:04.443Z,14.20
2018-10-11T08:26:34.779Z,14.30
2018-10-11T08:29:05.403Z,14.40
2018-10-11T08:31:35.792Z,14.50
2018-10-11T08:34:06.079Z,14.50
2018-10-11T08:36:36.406Z,14.60
2018-10-11T08:39:10.449Z,14.70
2018-10-11T08:41:41.110Z,14.80
2018-10-11T08:44:12.858Z,14.80
2018-10-11T08:46:43.257Z,14.90
2018-10-11T08:49:13.684Z,14.90
2018-10-11T08:51:43.983Z,15.00
2018-10-11T08:54:19.594Z,15.10
2018-10-11T08:56:49.912Z,15.10
2018-10-11T08:59:20.274Z,15.30
2018-10-11T09:01:50.560Z,15.30
2018-10-11T09:04:20.847Z,15.50
2018-10-11T09:06:51.140Z,15.60
2018-10-11T09:09:21.414Z,15.70
2018-10-11T09:11:51.696Z,16.00
2018-10-11T09:14:21.983Z,16.20
2018-10-11T09:16:52.241Z,16.40
2018-10-11T09:19:22.547Z,16.50
2018-10-11T09:21:52.822Z,16.70
2018-10-11T09:24:23.115Z,16.90
2018-10-11T09:26:53.456Z,17.20
2018-10-11T09:29:23.793Z,17.40
2018-10-11T09:31:54.092Z,17.60
2018-10-11T09:34:24.445Z,17.80
2018-10-11T09:36:54.753Z,18.00
2018-10-11T09:39:25.042Z,18.30
2018-10-11T09:41:55.331Z,18.50
2018-10-11T09:44:25.610Z,18.70
2018-10-11T09:46:55.917Z,18.90
2018-10-11T09:49:26.219Z,19.10
2018-10-11T09:51:56.574Z,19.30
2018-10-11T09:54:26.904Z,19.50
2018-10-11T09:57:29.656Z,19.60
2018-10-11T10:00:00.869Z,19.60
2018-10-11T10:02:31.734Z,19.60
2018-10-11T10:05:03.442Z,19.40
2018-10-11T10:07:33.782Z,19.50
2018-10-11T10:10:04.192Z,19.50
2018-10-11T10:12:34.562Z,19.50
2018-10-11T10:15:05.187Z,19.50
2018-10-11T10:17:36.045Z,19.50
2018-10-11T10:20:06.957Z,19.50
2018-10-11T10:22:37.262Z,19.50
2018-10-11T10:25:07.594Z,19.60
2018-10-11T10:27:37.905Z,19.60
2018-10-11T10:30:13.657Z,19.70
2018-10-11T10:32:44.018Z,19.60
2018-10-11T10:35:14.306Z,19.60
2018-10-11T10:37:44.577Z,19.70
2018-10-11T10:40:14.863Z,19.80
2018-10-11T10:42:45.161Z,19.80
2018-10-11T10:45:15.504Z,19.90
2018-10-11T10:47:45.801Z,20.00
2018-10-11T10:50:16.106Z,20.10
2018-10-11T10:52:46.396Z,20.20
2018-10-11T10:55:16.730Z,20.40
2018-10-11T10:57:47.013Z,20.60
2018-10-11T11:00:17.337Z,20.80
2018-10-11T11:02:47.645Z,21.00
2018-10-11T11:05:17.934Z,21.20
2018-10-11T11:07:48.277Z,21.40
2018-10-11T11:10:18.625Z,21.70
2018-10-11T11:12:48.914Z,21.90
2018-10-11T11:15:19.218Z,22.10
2018-10-11T11:17:49.519Z,22.40
2018-10-11T11:20:19.834Z,22.60
2018-10-11T11:22:50.203Z,22.80
2018-10-11T11:25:20.573Z,23.10
2018-10-11T11:27:50.827Z,23.20
2018-10-11T11:30:21.158Z,23.40
2018-10-11T11:32:51.460Z,23.40
2018-10-11T11:35:21.796Z,23.20
2018-10-11T11:37:52.126Z,23.00
2018-10-11T11:40:22.417Z,22.90
2018-10-11T11:42:52.749Z,22.80
2018-10-11T11:45:23.025Z,22.50
2018-10-11T11:47:53.311Z,22.30
2018-10-11T11:50:23.631Z,22.10
2018-10-11T11:52:53.935Z,22.00
2018-10-11T11:55:24.231Z,22.00
2018-10-11T11:57:54.582Z,22.00
2018-10-11T12:00:27.456Z,22.10
2018-10-11T12:02:59.563Z,22.20
2018-10-11T12:05:30.707Z,22.20
2018-10-11T12:08:01.075Z,22.10
2018-10-11T12:10:31.448Z,22.00
2018-10-11T12:13:06.082Z,22.00
2018-10-11T12:15:37.014Z,22.00
2018-10-11T12:18:08.064Z,22.00
2018-10-11T12:20:40.584Z,22.10
2018-10-11T12:23:12.225Z,22.10
2018-10-11T12:25:42.572Z,22.10
2018-10-11T12:28:12.889Z,22.10
2018-10-11T12:30:43.203Z,22.10
2018-10-11T12:33:13.547Z,22.10
2018-10-11T12:35:43.851Z,22.00
2018-10-11T12:38:14.155Z,22.00
2018-10-11T12:40:44.522Z,22.00
2018-10-11T12:43:14.843Z,21.90
2018-10-11T12:45:45.181Z,21.90
2018-10-11T12:48:15.515Z,21.90
2018-10-11T12:50:45.945Z,22.00
2018-10-11T12:53:16.234Z,22.00
2018-10-11T12:55:46.726Z,22.00
2018-10-11T12:58:17.010Z,22.00
2018-10-11T13:00:47.384Z,22.00
2018-10-11T13:03:17.785Z,22.00
2018-10-11T13:05:48.075Z,21.90
2018-10-11T13:08:18.436Z,21.90
2018-10-11T13:10:48.794Z,22.00
2018-10-11T13:13:19.159Z,22.00
2018-10-11T13:15:49.581Z,22.00
2018-10-11T13:18:19.898Z,22.00
2018-10-11T13:20:50.198Z,21.40
2018-10-11T13:23:20.582Z,21.90
2018-10-11T13:25:50.911Z,21.80
2018-10-11T13:28:21.180Z,21.70
2018-10-11T13:30:51.509Z,21.70
2018-10-11T13:33:21.803Z,21.60
2018-10-11T13:35:52.126Z,21.60
2018-10-11T13:38:22.437Z,21.60
2018-10-11T13:40:55.815Z,21.50
2018-10-11T13:43:23.125Z,21.50
2018-10-11T13:45:56.975Z,21.40
2018-10-11T13:48:23.793Z,21.40
2018-10-11T13:50:54.166Z,21.30
2018-10-11T13:53:24.798Z,21.30
2018-10-11T13:55:58.310Z,21.20
2018-10-11T13:58:26.038Z,21.20
2018-10-11T14:00:56.413Z,21.20
2018-10-11T14:03:26.790Z,21.20
2018-10-11T14:05:57.150Z,21.20
2018-10-11T14:08:27.489Z,21.10
2018-10-11T14:10:57.873Z,21.20
2018-10-11T14:13:28.317Z,21.20
2018-10-11T14:15:58.635Z,21.20
2018-10-11T14:18:28.935Z,21.20
2018-10-11T14:20:59.477Z,21.20
2018-10-11T14:23:29.803Z,21.20
2018-10-11T14:26:00.093Z,21.20
2018-10-11T14:28:30.523Z,21.20
2018-10-11T14:31:00.843Z,21.10
2018-10-11T14:33:31.157Z,21.10
2018-10-11T14:36:01.493Z,21.00
2018-10-11T14:38:31.838Z,20.90
2018-10-11T14:41:02.188Z,20.80
2018-10-11T14:43:32.629Z,20.80
2018-10-11T14:46:02.877Z,20.70
2018-10-11T14:48:33.241Z,20.70
2018-10-11T14:51:03.623Z,20.70
2018-10-11T14:53:33.884Z,20.70
2018-10-11T14:56:04.218Z,20.60
2018-10-11T14:58:34.586Z,20.60
2018-10-11T15:01:04.948Z,20.60
2018-10-11T15:03:35.242Z,20.70
2018-10-11T15:06:05.742Z,20.70
2018-10-11T15:08:36.125Z,20.60
2018-10-11T15:11:06.779Z,20.60
2018-10-11T15:13:37.057Z,20.60
2018-10-11T15:16:07.418Z,20.40
2018-10-11T15:21:07.779Z,20.00
2018-10-11T15:23:38.078Z,19.70
2018-10-11T15:26:08.453Z,19.50
2018-10-11T15:28:38.774Z,19.20
2018-10-11T15:31:09.134Z,19.10
2018-10-11T15:33:39.422Z,18.90
2018-10-11T15:36:09.767Z,18.80
2018-10-11T15:38:40.125Z,18.60
2018-10-11T15:41:10.426Z,18.50
2018-10-11T15:43:40.940Z,18.40
2018-10-11T15:46:11.162Z,18.20
2018-10-11T15:48:41.533Z,18.10
2018-10-11T15:51:11.878Z,18.00
2018-10-11T15:53:42.246Z,17.90
2018-10-11T15:56:12.590Z,17.70
2018-10-11T15:58:42.949Z,17.60
2018-10-11T16:01:13.362Z,17.50
2018-10-11T16:03:43.677Z,17.30
2018-10-11T16:06:14.045Z,17.20
2018-10-11T16:08:44.323Z,17.10
2018-10-11T16:11:14.701Z,17.00
2018-10-11T16:13:45.062Z,16.90
2018-10-11T16:16:15.449Z,16.80
2018-10-11T16:18:45.782Z,16.70
2018-10-11T16:21:16.133Z,16.60
2018-10-11T16:23:46.457Z,16.50
2018-10-11T16:26:16.842Z,16.40
2018-10-11T16:28:47.235Z,16.30
2018-10-11T16:31:17.619Z,16.20
2018-10-11T16:33:48.206Z,16.10
2018-10-11T16:36:18.570Z,16.10
2018-10-11T16:38:48.939Z,16.00
2018-10-11T16:41:19.258Z,16.00
2018-10-11T16:43:49.631Z,15.90
2018-10-11T16:46:19.966Z,15.80
2018-10-11T16:48:50.356Z,15.70
2018-10-11T16:51:20.711Z,15.70
2018-10-11T16:53:51.462Z,15.60
2018-10-11T16:56:21.806Z,15.60
2018-10-11T16:58:52.147Z,15.50
2018-10-11T17:01:22.571Z,15.50
2018-10-11T17:03:52.903Z,15.50
2018-10-11T17:06:23.288Z,15.40
2018-10-11T17:08:53.613Z,15.40
2018-10-11T17:11:23.992Z,15.30
2018-10-11T17:13:54.389Z,15.20
2018-10-11T17:16:24.740Z,15.20
2018-10-11T17:18:55.076Z,15.10
2018-10-11T17:21:25.449Z,15.10
2018-10-11T17:23:55.741Z,15.00
2018-10-11T17:26:26.172Z,14.90
2018-10-11T17:28:56.528Z,14.90
2018-10-11T17:31:26.864Z,14.90
2018-10-11T17:33:57.149Z,14.90
2018-10-11T17:36:27.517Z,14.80
2018-10-11T17:38:57.827Z,14.90
2018-10-11T17:41:28.185Z,14.90
2018-10-11T17:43:58.650Z,14.80
2018-10-11T17:46:28.879Z,14.80
2018-10-11T17:48:59.241Z,14.80
2018-10-11T17:51:29.607Z,14.70
2018-10-11T17:53:59.996Z,14.70
2018-10-11T17:56:30.374Z,14.70
2018-10-11T17:59:00.682Z,14.60
2018-10-11T18:01:31.039Z,14.60
2018-10-11T18:04:01.378Z,14.50
2018-10-11T18:06:31.803Z,14.50
2018-10-11T18:09:02.143Z,14.50
2018-10-11T18:11:32.515Z,14.50
2018-10-11T18:14:03.024Z,14.40
2018-10-11T18:16:33.436Z,14.40
2018-10-11T18:19:03.829Z,14.40
2018-10-11T18:21:34.223Z,14.40
2018-10-11T18:24:04.663Z,14.30
2018-10-11T18:26:35.043Z,14.30
2018-10-11T18:29:05.786Z,14.20
2018-10-11T18:31:36.440Z,14.10
2018-10-11T18:34:07.172Z,14.10
2018-10-11T18:36:37.523Z,14.10
2018-10-11T18:39:12.512Z,14.00
2018-10-11T18:41:43.476Z,14.00
2018-10-11T18:44:14.031Z,14.00
2018-10-11T18:46:44.439Z,13.90
2018-10-11T18:49:14.784Z,13.90
2018-10-11T18:51:45.195Z,13.80
2018-10-11T18:54:15.581Z,13.70
2018-10-11T18:56:46.082Z,13.70
2018-10-11T18:59:16.526Z,13.70
2018-10-11T19:01:47.046Z,13.60
2018-10-11T19:04:17.477Z,13.60
2018-10-11T19:06:48.163Z,13.60
2018-10-11T19:09:18.714Z,13.60
2018-10-11T19:11:49.188Z,13.60
2018-10-11T19:14:19.648Z,13.50
2018-10-11T19:16:50.076Z,13.50
2018-10-11T19:19:20.474Z,13.40
2018-10-11T19:21:50.939Z,13.30
2018-10-11T19:24:21.377Z,13.30
2018-10-11T19:26:51.763Z,13.30
2018-10-11T19:29:22.230Z,13.20
2018-10-11T19:31:52.708Z,13.20
2018-10-11T19:34:23.092Z,13.10
2018-10-11T19:36:53.517Z,13.10
2018-10-11T19:39:23.932Z,13.00
2018-10-11T19:41:54.286Z,13.00
2018-10-11T19:44:24.684Z,13.00
2018-10-11T19:46:55.144Z,12.90
2018-10-11T19:49:25.549Z,12.90
2018-10-11T19:51:55.947Z,12.80
2018-10-11T19:54:26.359Z,12.80
2018-10-11T19:56:56.709Z,12.70
2018-10-11T19:59:27.038Z,12.70
2018-10-11T20:01:57.411Z,12.60
2018-10-11T20:04:27.721Z,12.50
2018-10-11T20:06:58.085Z,12.40
2018-10-11T20:09:28.460Z,12.40
2018-10-11T20:11:58.826Z,12.40
2018-10-11T20:14:29.137Z,12.40
2018-10-11T20:16:59.503Z,12.40
2018-10-11T20:19:29.831Z,12.40
2018-10-11T20:22:00.259Z,12.30
2018-10-11T20:24:30.585Z,12.30
2018-10-11T20:27:00.956Z,12.30
2018-10-11T20:29:31.309Z,12.30
2018-10-11T20:32:01.656Z,12.20
2018-10-11T20:34:32.191Z,12.20
2018-10-11T20:37:02.612Z,12.10
2018-10-11T20:39:33.013Z,12.10
2018-10-11T20:42:03.366Z,12.10
2018-10-11T20:44:33.751Z,12.00
2018-10-11T20:47:04.050Z,12.00
2018-10-11T20:49:34.414Z,12.00
2018-10-11T20:52:04.739Z,11.90
2018-10-11T20:54:35.126Z,11.90
2018-10-11T20:57:05.513Z,11.90
2018-10-11T20:59:35.826Z,11.80
2018-10-11T21:02:06.478Z,11.80
2018-10-11T21:04:36.911Z,11.70
2018-10-11T21:07:07.693Z,11.70
2018-10-11T21:09:37.988Z,11.60
2018-10-11T21:12:08.438Z,11.60
2018-10-11T21:14:38.725Z,11.60
2018-10-11T21:17:09.066Z,11.60
2018-10-11T21:19:39.358Z,11.60
2018-10-11T21:22:09.673Z,11.60
2018-10-11T21:24:40.201Z,11.50
2018-10-11T21:27:10.557Z,11.50
2018-10-11T21:29:40.918Z,11.50
2018-10-11T21:32:11.273Z,11.50
2018-10-11T21:34:41.613Z,11.50
2018-10-11T21:37:11.930Z,11.50
2018-10-11T21:39:42.231Z,11.40
2018-10-11T21:42:12.582Z,11.40
2018-10-11T21:44:42.934Z,11.40
2018-10-11T21:47:13.251Z,11.40
2018-10-11T21:49:43.597Z,11.30
2018-10-11T21:52:13.976Z,11.30
2018-10-11T21:54:44.311Z,11.20
2018-10-11T21:57:14.610Z,11.10
2018-10-11T21:59:44.945Z,11.10
2018-10-11T22:02:15.239Z,11.10
2018-10-11T22:04:45.856Z,11.00
2018-10-11T22:07:16.190Z,11.00
2018-10-11T22:09:46.539Z,11.00
2018-10-11T22:12:16.858Z,11.00
2018-10-11T22:14:47.262Z,11.00
2018-10-11T22:17:17.521Z,11.00
2018-10-11T22:19:47.812Z,10.90
2018-10-11T22:22:18.154Z,10.80
2018-10-11T22:24:48.450Z,10.70
2018-10-11T22:27:18.816Z,10.70
2018-10-11T22:29:49.141Z,10.70
2018-10-11T22:32:19.459Z,10.80
2018-10-11T22:34:49.769Z,10.80
2018-10-11T22:37:20.073Z,10.80
2018-10-11T22:39:50.367Z,10.80
2018-10-11T22:42:20.756Z,10.80
2018-10-11T22:44:51.080Z,10.80
2018-10-11T22:47:21.416Z,10.80
2018-10-11T22:49:51.762Z,10.80
2018-10-11T22:52:22.121Z,10.70
2018-10-11T22:54:52.466Z,10.70
2018-10-11T22:57:22.799Z,10.70
2018-10-11T22:59:53.166Z,10.60
2018-10-11T23:02:23.483Z,10.70
2018-10-11T23:04:53.813Z,10.60
2018-10-11T23:07:24.137Z,10.60
2018-10-11T23:09:54.850Z,10.60
2018-10-11T23:12:25.454Z,10.60
2018-10-11T23:14:55.809Z,10.60
2018-10-11T23:17:26.115Z,10.60
2018-10-11T23:19:56.435Z,10.60
2018-10-11T23:22:26.764Z,10.50
2018-10-11T23:24:57.082Z,10.50
2018-10-11T23:27:27.398Z,10.50
2018-10-11T23:29:57.721Z,10.50
2018-10-11T23:32:28.038Z,10.40
2018-10-11T23:34:58.382Z,10.40
2018-10-11T23:37:28.714Z,10.40
2018-10-11T23:39:59.106Z,10.40
2018-10-11T23:42:29.485Z,10.30
2018-10-11T23:44:59.788Z,10.30
2018-10-11T23:47:30.282Z,10.30
2018-10-11T23:50:00.625Z,10.30
2018-10-11T23:52:30.977Z,10.30
2018-10-11T23:55:01.301Z,10.20
2018-10-11T23:57:31.635Z,10.20
